createdAt,value
2019-03-04T00:03:16.684Z,2.55
2019-03-04T00:07:21.229Z,2.25
2019-03-04T00:11:25.828Z,2.62
2019-03-04T00:15:30.384Z,2.57
2019-03-04T00:19:34.946Z,2.27
2019-03-04T00:23:39.510Z,2.20
2019-03-04T00:27:44.081Z,2.08
2019-03-04T00:31:48.670Z,2.10
2019-03-04T00:35:53.191Z,2.02
2019-03-04T00:39:57.752Z,1.67
2019-03-04T00:44:02.314Z,1.63
2019-03-04T00:48:06.893Z,1.93
2019-03-04T00:52:11.448Z,1.60
2019-03-04T00:56:15.970Z,1.70
2019-03-04T01:00:22.377Z,1.90
2019-03-04T01:04:26.941Z,1.80
2019-03-04T01:08:31.502Z,1.87
2019-03-04T01:12:36.049Z,1.90
2019-03-04T01:16:40.628Z,1.70
2019-03-04T01:20:45.192Z,1.57
2019-03-04T01:24:49.757Z,1.83
2019-03-04T01:28:54.312Z,2.10
2019-03-04T01:32:58.860Z,1.50
2019-03-04T01:37:03.425Z,1.87
2019-03-04T01:41:07.947Z,2.00
2019-03-04T01:45:13.288Z,1.47
2019-03-04T01:49:17.871Z,1.53
2019-03-04T01:53:22.422Z,2.10
2019-03-04T01:57:27.007Z,2.23
2019-03-04T02:01:31.564Z,1.93
2019-03-04T02:05:36.123Z,1.50
2019-03-04T02:09:40.969Z,2.00
2019-03-04T02:13:45.566Z,1.87
2019-03-04T02:17:50.164Z,1.63
2019-03-04T02:21:54.697Z,1.70
2019-03-04T02:26:29.837Z,2.17
2019-03-04T02:30:34.426Z,1.70
2019-03-04T02:34:38.977Z,2.00
2019-03-04T02:38:43.544Z,1.83
2019-03-04T02:42:48.089Z,1.80
2019-03-04T02:46:52.633Z,1.63
2019-03-04T02:50:57.186Z,1.87
2019-03-04T02:55:01.744Z,1.83
2019-03-04T02:59:06.404Z,1.50
2019-03-04T03:03:10.920Z,1.80
2019-03-04T03:07:15.480Z,1.40
2019-03-04T03:11:20.045Z,1.93
2019-03-04T03:15:24.640Z,1.60
2019-03-04T03:19:29.192Z,1.40
2019-03-04T03:23:33.828Z,1.77
2019-03-04T03:27:38.374Z,1.40
2019-03-04T03:31:42.903Z,1.40
2019-03-04T03:35:47.443Z,1.37
2019-03-04T03:39:52.022Z,1.90
2019-03-04T03:43:56.568Z,1.77
2019-03-04T03:48:01.128Z,1.50
2019-03-04T03:52:05.706Z,1.53
2019-03-04T03:56:10.252Z,1.10
2019-03-04T04:00:16.002Z,1.30
2019-03-04T04:04:20.547Z,1.30
2019-03-04T04:08:25.110Z,1.10
2019-03-04T04:12:29.661Z,1.53
2019-03-04T04:16:34.252Z,1.37
2019-03-04T04:20:38.771Z,1.10
2019-03-04T04:24:43.343Z,1.62
2019-03-04T04:28:47.909Z,1.30
2019-03-04T04:32:52.511Z,1.30
2019-03-04T04:36:57.071Z,1.22
2019-03-04T04:41:01.604Z,1.40
2019-03-04T04:45:06.703Z,1.30
2019-03-04T04:49:11.292Z,1.22
2019-03-04T04:53:15.925Z,1.10
2019-03-04T04:57:20.492Z,1.35
2019-03-04T05:01:25.001Z,1.15
2019-03-04T05:05:29.591Z,1.20
2019-03-04T05:09:34.176Z,1.40
2019-03-04T05:13:38.741Z,1.15
2019-03-04T05:17:43.299Z,1.00
2019-03-04T05:21:48.187Z,1.20
2019-03-04T05:25:52.772Z,1.20
2019-03-04T05:29:57.272Z,1.10
2019-03-04T05:34:01.854Z,1.10
2019-03-04T05:38:06.394Z,1.40
2019-03-04T05:42:10.956Z,1.10
2019-03-04T05:46:15.554Z,1.10
2019-03-04T05:50:20.167Z,1.30
2019-03-04T05:54:24.720Z,1.17
2019-03-04T05:58:29.242Z,0.90
2019-03-04T06:02:33.788Z,1.10
2019-03-04T06:07:12.684Z,1.32
2019-03-04T06:11:17.267Z,3.40
2019-03-04T06:15:22.160Z,1.07
2019-03-04T06:19:26.690Z,6.62
2019-03-04T06:23:31.288Z,0.90
2019-03-04T06:27:35.866Z,1.10
2019-03-04T06:31:41.348Z,1.02
2019-03-04T06:35:45.922Z,1.00
2019-03-04T06:39:50.495Z,1.10
2019-03-04T06:47:32.952Z,1.22
2019-03-04T06:51:45.604Z,0.90
2019-03-04T06:56:05.572Z,0.80
2019-03-04T07:00:36.912Z,0.70
2019-03-04T07:05:08.062Z,0.82
2019-03-04T07:09:17.958Z,0.80
2019-03-04T07:13:22.545Z,0.90
2019-03-04T07:17:27.147Z,1.17
2019-03-04T07:21:31.692Z,1.62
2019-03-04T07:25:36.228Z,1.75
2019-03-04T07:29:40.810Z,1.67
2019-03-04T07:33:45.525Z,6.17
2019-03-04T07:38:00.554Z,3.40
2019-03-04T07:42:05.129Z,1.70
2019-03-04T07:46:09.636Z,1.00
2019-03-04T07:50:14.211Z,0.40
2019-03-04T07:54:18.776Z,0.50
2019-03-04T07:58:25.082Z,0.60
2019-03-04T08:11:25.792Z,0.75
2019-03-04T08:15:43.116Z,0.40
2019-03-04T08:19:47.750Z,0.60
2019-03-04T08:23:52.334Z,0.30
2019-03-04T08:27:56.908Z,0.40
2019-03-04T08:32:01.457Z,0.97
2019-03-04T08:52:20.588Z,2.60
2019-03-04T08:56:25.174Z,0.55
2019-03-04T09:00:30.816Z,0.78
2019-03-04T09:04:35.407Z,0.68
2019-03-04T09:12:02.149Z,0.93
2019-03-04T09:16:06.759Z,0.62
2019-03-04T09:20:11.698Z,0.90
2019-03-04T09:24:16.255Z,0.95
2019-03-04T09:28:20.844Z,1.15
2019-03-04T09:32:25.484Z,0.83
2019-03-04T09:36:30.059Z,0.70
2019-03-04T09:40:34.976Z,0.83
2019-03-04T09:44:39.592Z,0.87
2019-03-04T09:48:44.145Z,1.00
2019-03-04T09:52:48.887Z,0.90
2019-03-04T09:56:56.799Z,1.07
2019-03-04T10:01:09.397Z,1.22
2019-03-04T10:05:52.266Z,1.00
2019-03-04T10:10:15.919Z,1.02
2019-03-04T10:15:09.239Z,1.05
2019-03-04T10:19:39.703Z,1.27
2019-03-04T10:24:03.545Z,1.30
2019-03-04T10:28:29.316Z,1.40
2019-03-04T10:33:20.702Z,1.70
2019-03-04T10:38:22.559Z,2.02
2019-03-04T10:43:17.452Z,1.70
2019-03-04T10:47:22.168Z,1.30
2019-03-04T10:56:31.736Z,1.30
2019-03-04T11:00:36.360Z,2.10
2019-03-04T11:04:40.965Z,1.37
2019-03-04T11:08:45.533Z,1.40
2019-03-04T11:12:50.176Z,1.40
2019-03-04T11:16:54.784Z,0.90
2019-03-04T11:20:59.346Z,1.00
2019-03-04T11:25:04.246Z,0.90
2019-03-04T11:29:13.189Z,0.95
2019-03-04T11:33:17.529Z,0.77
2019-03-04T11:37:22.191Z,0.53
2019-03-04T11:41:28.081Z,0.90
2019-03-04T11:45:32.658Z,0.90
2019-03-04T11:49:37.288Z,1.00
2019-03-04T11:53:41.876Z,1.07
2019-03-04T11:57:46.464Z,1.00
2019-03-04T12:01:51.028Z,0.93
2019-03-04T12:05:55.597Z,1.10
2019-03-04T12:10:00.321Z,0.50
2019-03-04T12:14:04.896Z,0.40
2019-03-04T12:18:09.523Z,0.50
2019-03-04T12:22:14.065Z,0.30
2019-03-04T12:26:18.826Z,0.40
2019-03-04T12:30:23.538Z,0.30
2019-03-04T12:34:28.826Z,0.20
2019-03-04T12:38:33.379Z,0.40
2019-03-04T12:42:37.919Z,0.40
2019-03-04T12:46:42.708Z,0.30
2019-03-04T12:50:47.361Z,0.40
2019-03-04T12:54:52.015Z,0.30
2019-03-04T12:58:56.584Z,0.40
2019-03-04T13:03:01.210Z,0.40
2019-03-04T13:07:05.792Z,0.80
2019-03-04T13:11:10.398Z,0.50
2019-03-04T13:15:17.029Z,0.60
2019-03-04T13:19:21.599Z,0.60
2019-03-04T13:23:26.142Z,0.47
2019-03-04T13:27:30.712Z,0.88
2019-03-04T13:31:35.279Z,0.60
2019-03-04T13:35:39.864Z,0.80
2019-03-04T13:39:44.375Z,0.80
2019-03-04T13:43:48.982Z,0.70
2019-03-04T13:47:53.541Z,0.80
2019-03-04T13:51:58.116Z,0.90
2019-03-04T13:56:02.702Z,0.62
2019-03-04T14:00:09.434Z,0.90
2019-03-04T14:04:14.021Z,1.05
2019-03-04T14:08:18.597Z,1.03
2019-03-04T14:12:23.165Z,0.93
2019-03-04T14:16:28.625Z,1.13
2019-03-04T14:20:35.242Z,1.20
2019-03-04T14:24:39.869Z,1.00
2019-03-04T14:28:44.432Z,1.32
2019-03-04T14:32:48.996Z,1.33
2019-03-04T14:37:45.549Z,1.30
2019-03-04T14:41:50.121Z,1.30
2019-03-04T14:45:54.656Z,1.42
2019-03-04T14:50:09.220Z,1.42
2019-03-04T14:54:05.568Z,1.50
2019-03-04T14:58:10.154Z,1.37
2019-03-04T15:02:14.714Z,1.30
2019-03-04T15:06:19.231Z,1.80
2019-03-04T15:10:23.800Z,1.70
2019-03-04T15:14:28.414Z,1.52
2019-03-04T15:18:34.946Z,1.52
2019-03-04T15:22:39.341Z,1.40
2019-03-04T15:26:44.294Z,1.30
2019-03-04T15:30:51.252Z,1.75
2019-03-04T15:34:55.808Z,1.72
2019-03-04T15:39:00.379Z,1.50
2019-03-04T15:43:04.957Z,1.67
2019-03-04T15:47:09.486Z,1.72
2019-03-04T15:51:14.035Z,1.50
2019-03-04T15:55:18.700Z,1.70
2019-03-04T15:59:23.288Z,1.75
2019-03-04T16:03:27.800Z,1.67
2019-03-04T16:07:32.392Z,1.72
2019-03-04T16:11:36.951Z,1.30
2019-03-04T16:15:43.033Z,1.77
2019-03-04T16:19:47.599Z,1.83
2019-03-04T16:23:52.135Z,1.70
2019-03-04T16:28:05.526Z,1.63
2019-03-04T16:32:10.089Z,2.25
2019-03-04T16:36:14.652Z,1.80
2019-03-04T16:40:19.235Z,1.70
2019-03-04T16:44:23.872Z,1.90
2019-03-04T16:48:28.472Z,2.17
2019-03-04T16:52:33.066Z,1.90
2019-03-04T16:56:37.638Z,2.10
2019-03-04T17:00:42.869Z,1.80
2019-03-04T17:04:47.416Z,2.15
2019-03-04T17:08:51.972Z,1.80
2019-03-04T17:12:56.671Z,2.05
2019-03-04T17:17:01.255Z,1.85
2019-03-04T17:21:05.911Z,2.02
2019-03-04T17:25:11.620Z,1.87
2019-03-04T17:29:16.176Z,2.02
2019-03-04T17:33:20.732Z,2.27
2019-03-04T17:37:25.293Z,2.10
2019-03-04T17:41:29.849Z,2.10
2019-03-04T17:45:34.370Z,2.27
2019-03-04T17:49:38.920Z,2.70
2019-03-04T17:53:43.487Z,4.58
2019-03-04T17:57:48.051Z,2.27
2019-03-04T18:01:52.635Z,2.70
2019-03-04T18:05:57.160Z,2.12
2019-03-04T18:10:01.719Z,2.30
2019-03-04T18:14:07.602Z,2.33
2019-03-04T18:18:13.743Z,2.00
2019-03-04T18:22:18.444Z,2.47
2019-03-04T18:26:26.870Z,2.50
2019-03-04T18:31:11.385Z,2.12
2019-03-04T18:35:48.875Z,2.30
2019-03-04T18:40:29.324Z,2.10
2019-03-04T18:45:23.347Z,2.27
2019-03-04T18:49:27.938Z,2.50
2019-03-04T18:53:32.493Z,2.83
2019-03-04T18:57:37.035Z,2.03
2019-03-04T19:01:41.640Z,2.50
2019-03-04T19:05:46.198Z,1.67
2019-03-04T19:09:51.107Z,2.00
2019-03-04T19:13:55.651Z,1.92
2019-03-04T19:18:00.208Z,2.30
2019-03-04T19:22:04.761Z,2.23
2019-03-04T19:26:09.452Z,2.33
2019-03-04T19:30:14.435Z,2.58
2019-03-04T19:34:19.012Z,2.15
2019-03-04T19:38:23.525Z,2.50
2019-03-04T19:42:28.096Z,2.15
2019-03-04T19:46:32.689Z,2.65
2019-03-04T19:50:37.249Z,2.30
2019-03-04T19:54:41.805Z,2.47
2019-03-04T19:58:46.320Z,2.17
2019-03-04T20:02:51.048Z,2.52
2019-03-04T20:06:55.636Z,2.55
2019-03-04T20:11:00.193Z,2.40
2019-03-04T20:15:05.783Z,2.35
2019-03-04T20:19:10.363Z,2.90
2019-03-04T20:23:14.909Z,2.93
2019-03-04T20:27:19.510Z,2.60
2019-03-04T20:31:24.076Z,2.90
2019-03-04T20:35:28.626Z,2.58
2019-03-04T20:39:33.202Z,2.55
2019-03-04T20:43:37.739Z,2.27
2019-03-04T20:47:42.338Z,2.60
2019-03-04T20:51:46.895Z,3.12
2019-03-04T20:55:51.453Z,2.52
2019-03-04T20:59:56.029Z,2.30
2019-03-04T21:04:00.755Z,2.13
2019-03-04T21:08:05.407Z,2.30
2019-03-04T21:12:09.989Z,2.27
2019-03-04T21:16:14.575Z,2.17
2019-03-04T21:20:19.428Z,2.02
2019-03-04T21:24:24.048Z,2.45
2019-03-04T21:28:57.853Z,2.17
2019-03-04T21:33:30.438Z,2.05
2019-03-04T21:37:38.650Z,2.47
2019-03-04T21:41:54.763Z,1.95
2019-03-04T21:46:35.347Z,1.95
2019-03-04T21:51:01.564Z,1.90
2019-03-04T21:55:10.080Z,2.20
2019-03-04T21:59:14.624Z,2.00
2019-03-04T22:03:28.090Z,2.20
2019-03-04T22:07:32.762Z,2.00
2019-03-04T22:11:37.330Z,2.08
2019-03-04T22:15:41.893Z,1.97
2019-03-04T22:19:46.489Z,1.92
2019-03-04T22:23:51.111Z,1.92
2019-03-04T22:27:55.652Z,1.70
2019-03-04T22:32:00.223Z,1.72
2019-03-04T22:36:04.801Z,1.82
2019-03-04T22:40:12.059Z,2.17
2019-03-04T22:44:16.629Z,1.92
2019-03-04T22:48:21.189Z,2.40
2019-03-04T22:52:25.724Z,2.40
2019-03-04T22:56:30.289Z,2.22
2019-03-04T23:01:21.360Z,2.40
2019-03-04T23:05:26.145Z,2.17
2019-03-04T23:09:32.815Z,2.20
2019-03-04T23:14:01.222Z,2.45
2019-03-04T23:18:05.797Z,2.40
2019-03-04T23:22:10.320Z,2.80
2019-03-04T23:26:14.878Z,3.10
2019-03-04T23:30:19.469Z,3.17
2019-03-04T23:34:24.037Z,3.10
2019-03-04T23:38:28.602Z,3.60
2019-03-04T23:42:33.608Z,3.87
2019-03-04T23:46:38.172Z,4.45
2019-03-04T23:50:42.750Z,4.95
2019-03-04T23:54:47.303Z,6.40
2019-03-04T23:58:51.835Z,7.03
